sensor_id;sensor_type;location;lat;lon;timestamp;pressure;altitude;pressure_sealevel;temperature;humidity
59104;BME280;51449;51.676;5.812;2022-08-21T00:02:03;101641.03;;;16.10;65.96
59104;BME280;51449;51.676;5.812;2022-08-21T00:04:34;101641.72;;;16.07;65.80
59104;BME280;51449;51.676;5.812;2022-08-21T00:06:57;101644.06;;;16.04;65.64
59104;BME280;51449;51.676;5.812;2022-08-21T00:09:20;101648.78;;;16.04;65.82
59104;BME280;51449;51.676;5.812;2022-08-21T00:11:42;101647.16;;;16.03;65.90
59104;BME280;51449;51.676;5.812;2022-08-21T00:14:07;101642.41;;;16.03;66.06
59104;BME280;51449;51.676;5.812;2022-08-21T00:16:30;101645.19;;;16.03;66.00
59104;BME280;51449;51.676;5.812;2022-08-21T00:18:54;101640.34;;;16.00;66.19
59104;BME280;51449;51.676;5.812;2022-08-21T00:21:16;101636.31;;;15.98;66.21
59104;BME280;51449;51.676;5.812;2022-08-21T00:23:38;101634.22;;;15.95;66.10
59104;BME280;51449;51.676;5.812;2022-08-21T00:26:01;101637.34;;;15.93;66.22
59104;BME280;51449;51.676;5.812;2022-08-21T00:28:23;101631.66;;;15.90;66.33
59104;BME280;51449;51.676;5.812;2022-08-21T00:30:45;101631.22;;;15.88;66.19
59104;BME280;51449;51.676;5.812;2022-08-21T00:33:08;101627.53;;;15.83;66.30
59104;BME280;51449;51.676;5.812;2022-08-21T00:35:37;101629.03;;;15.81;66.58
59104;BME280;51449;51.676;5.812;2022-08-21T00:38:00;101625.31;;;15.77;66.49
59104;BME280;51449;51.676;5.812;2022-08-21T00:40:37;101624.53;;;15.76;66.70
59104;BME280;51449;51.676;5.812;2022-08-21T00:43:05;101627.22;;;15.73;66.71
59104;BME280;51449;51.676;5.812;2022-08-21T00:45:29;101622.78;;;15.72;66.89
59104;BME280;51449;51.676;5.812;2022-08-21T00:47:53;101620.34;;;15.70;66.87
59104;BME280;51449;51.676;5.812;2022-08-21T00:50:17;101625.91;;;15.70;66.73
59104;BME280;51449;51.676;5.812;2022-08-21T00:52:43;101620.69;;;15.69;67.02
59104;BME280;51449;51.676;5.812;2022-08-21T00:55:08;101622.66;;;15.68;67.02
59104;BME280;51449;51.676;5.812;2022-08-21T00:57:45;101622.19;;;15.66;67.42
59104;BME280;51449;51.676;5.812;2022-08-21T01:00:17;101624.16;;;15.66;67.30
59104;BME280;51449;51.676;5.812;2022-08-21T01:02:44;101627.28;;;15.64;67.21
59104;BME280;51449;51.676;5.812;2022-08-21T01:05:07;101630.88;;;15.65;67.54
59104;BME280;51449;51.676;5.812;2022-08-21T01:07:29;101631.56;;;15.61;67.43
59104;BME280;51449;51.676;5.812;2022-08-21T01:09:51;101625.56;;;15.59;67.54
59104;BME280;51449;51.676;5.812;2022-08-21T01:12:14;101616.75;;;15.57;67.35
59104;BME280;51449;51.676;5.812;2022-08-21T01:14:37;101626.72;;;15.58;67.40
59104;BME280;51449;51.676;5.812;2022-08-21T01:17:02;101624.28;;;15.57;67.49
59104;BME280;51449;51.676;5.812;2022-08-21T01:19:25;101619.44;;;15.54;67.72
59104;BME280;51449;51.676;5.812;2022-08-21T01:21:48;101624.06;;;15.50;67.65
59104;BME280;51449;51.676;5.812;2022-08-21T01:24:11;101621.19;;;15.46;67.59
59104;BME280;51449;51.676;5.812;2022-08-21T01:26:35;101627.41;;;15.43;67.66
59104;BME280;51449;51.676;5.812;2022-08-21T01:29:14;101628.09;;;15.40;67.39
59104;BME280;51449;51.676;5.812;2022-08-21T01:31:44;101625.22;;;15.36;67.42
59104;BME280;51449;51.676;5.812;2022-08-21T01:34:08;101633.09;;;15.34;67.48
59104;BME280;51449;51.676;5.812;2022-08-21T01:36:32;101630.19;;;15.31;67.74
59104;BME280;51449;51.676;5.812;2022-08-21T01:38:54;101625.00;;;15.29;68.00
59104;BME280;51449;51.676;5.812;2022-08-21T01:41:16;101633.31;;;15.29;68.16
59104;BME280;51449;51.676;5.812;2022-08-21T01:43:39;101624.06;;;15.25;68.34
59104;BME280;51449;51.676;5.812;2022-08-21T01:46:02;101624.84;;;15.26;68.26
59104;BME280;51449;51.676;5.812;2022-08-21T01:48:25;101622.44;;;15.24;68.39
59104;BME280;51449;51.676;5.812;2022-08-21T01:50:47;101619.66;;;15.24;68.50
59104;BME280;51449;51.676;5.812;2022-08-21T01:53:17;101618.03;;;15.23;68.38
59104;BME280;51449;51.676;5.812;2022-08-21T01:55:48;101623.59;;;15.23;68.38
59104;BME280;51449;51.676;5.812;2022-08-21T01:58:10;101623.94;;;15.22;68.89
59104;BME280;51449;51.676;5.812;2022-08-21T02:00:32;101635.84;;;15.22;68.25
59104;BME280;51449;51.676;5.812;2022-08-21T02:02:55;101630.31;;;15.22;68.48
59104;BME280;51449;51.676;5.812;2022-08-21T02:05:18;101622.31;;;15.20;68.47
59104;BME280;51449;51.676;5.812;2022-08-21T02:07:45;101619.19;;;15.22;68.51
59104;BME280;51449;51.676;5.812;2022-08-21T02:10:11;101621.97;;;15.22;68.44
59104;BME280;51449;51.676;5.812;2022-08-21T02:12:34;101617.56;;;15.21;68.66
59104;BME280;51449;51.676;5.812;2022-08-21T02:14:56;101609.59;;;15.19;69.02
59104;BME280;51449;51.676;5.812;2022-08-21T02:17:19;101614.31;;;15.19;68.95
59104;BME280;51449;51.676;5.812;2022-08-21T02:19:41;101614.31;;;15.19;68.83
59104;BME280;51449;51.676;5.812;2022-08-21T02:22:03;101612.72;;;15.18;68.96
59104;BME280;51449;51.676;5.812;2022-08-21T02:24:25;101609.47;;;15.16;68.91
59104;BME280;51449;51.676;5.812;2022-08-21T02:26:47;101605.09;;;15.15;68.92
59104;BME280;51449;51.676;5.812;2022-08-21T02:29:09;101604.63;;;15.13;69.02
59104;BME280;51449;51.676;5.812;2022-08-21T02:31:31;101607.38;;;15.13;68.93
59104;BME280;51449;51.676;5.812;2022-08-21T02:33:53;101600.22;;;15.12;68.92
59104;BME280;51449;51.676;5.812;2022-08-21T02:36:14;101605.41;;;15.13;69.22
59104;BME280;51449;51.676;5.812;2022-08-21T02:38:39;101603.44;;;15.14;69.38
59104;BME280;51449;51.676;5.812;2022-08-21T02:41:05;101602.31;;;15.15;69.38
59104;BME280;51449;51.676;5.812;2022-08-21T02:43:29;101601.13;;;15.16;69.47
59104;BME280;51449;51.676;5.812;2022-08-21T02:45:51;101595.59;;;15.16;69.63
59104;BME280;51449;51.676;5.812;2022-08-21T02:48:19;101595.94;;;15.14;69.54
59104;BME280;51449;51.676;5.812;2022-08-21T02:50:51;101595.00;;;15.10;69.53
59104;BME280;51449;51.676;5.812;2022-08-21T02:53:16;101598.81;;;15.06;69.24
59104;BME280;51449;51.676;5.812;2022-08-21T02:55:38;101593.97;;;15.03;69.32
59104;BME280;51449;51.676;5.812;2022-08-21T02:58:01;101599.84;;;15.01;69.32
59104;BME280;51449;51.676;5.812;2022-08-21T03:00:28;101593.03;;;14.98;69.58
59104;BME280;51449;51.676;5.812;2022-08-21T03:02:51;101588.66;;;14.97;69.50
59104;BME280;51449;51.676;5.812;2022-08-21T03:05:15;101589.78;;;14.96;69.63
59104;BME280;51449;51.676;5.812;2022-08-21T03:07:37;101582.63;;;14.95;69.50
59104;BME280;51449;51.676;5.812;2022-08-21T03:10:01;101583.44;;;14.96;69.36
59104;BME280;51449;51.676;5.812;2022-08-21T03:12:24;101582.63;;;14.95;69.63
59104;BME280;51449;51.676;5.812;2022-08-21T03:14:50;101578.91;;;14.91;69.48
59104;BME280;51449;51.676;5.812;2022-08-21T03:17:12;101581.59;;;14.88;69.43
59104;BME280;51449;51.676;5.812;2022-08-21T03:19:34;101576.69;;;14.85;69.33
59104;BME280;51449;51.676;5.812;2022-08-21T03:21:56;101576.25;;;14.83;69.43
59104;BME280;51449;51.676;5.812;2022-08-21T03:24:18;101576.59;;;14.81;69.60
59104;BME280;51449;51.676;5.812;2022-08-21T03:26:43;101581.34;;;14.81;69.48
59104;BME280;51449;51.676;5.812;2022-08-21T03:29:05;101584.44;;;14.79;69.60
59104;BME280;51449;51.676;5.812;2022-08-21T03:31:28;101578.41;;;14.77;69.34
59104;BME280;51449;51.676;5.812;2022-08-21T03:33:52;101578.78;;;14.75;69.39
59104;BME280;51449;51.676;5.812;2022-08-21T03:36:16;101587.44;;;14.74;69.47
59104;BME280;51449;51.676;5.812;2022-08-21T03:38:38;101576.69;;;14.72;69.66
59104;BME280;51449;51.676;5.812;2022-08-21T03:41:01;101573.31;;;14.67;69.63
59104;BME280;51449;51.676;5.812;2022-08-21T03:43:24;101577.50;;;14.61;69.41
59104;BME280;51449;51.676;5.812;2022-08-21T03:45:46;101584.38;;;14.54;69.42
59104;BME280;51449;51.676;5.812;2022-08-21T03:48:08;101574.97;;;14.47;69.65
59104;BME280;51449;51.676;5.812;2022-08-21T03:50:34;101584.66;;;14.41;69.69
59104;BME280;51449;51.676;5.812;2022-08-21T03:53:01;101579.69;;;14.34;69.74
59104;BME280;51449;51.676;5.812;2022-08-21T03:55:24;101574.78;;;14.31;69.77
59104;BME280;51449;51.676;5.812;2022-08-21T03:57:47;101582.53;;;14.25;69.77
59104;BME280;51449;51.676;5.812;2022-08-21T04:00:10;101585.84;;;14.19;70.06
59104;BME280;51449;51.676;5.812;2022-08-21T04:02:36;101580.50;;;14.13;69.86
59104;BME280;51449;51.676;5.812;2022-08-21T04:04:58;101586.72;;;14.10;70.21
59104;BME280;51449;51.676;5.812;2022-08-21T04:07:19;101577.13;;;14.08;70.17
59104;BME280;51449;51.676;5.812;2022-08-21T04:09:41;101577.00;;;14.04;70.35
59104;BME280;51449;51.676;5.812;2022-08-21T04:12:03;101580.13;;;14.03;70.34
59104;BME280;51449;51.676;5.812;2022-08-21T04:14:27;101576.06;;;14.00;70.71
59104;BME280;51449;51.676;5.812;2022-08-21T04:16:49;101577.88;;;13.96;70.51
59104;BME280;51449;51.676;5.812;2022-08-21T04:19:12;101578.56;;;13.93;70.82
59104;BME280;51449;51.676;5.812;2022-08-21T04:21:38;101575.31;;;13.91;70.68
59104;BME280;51449;51.676;5.812;2022-08-21T04:24:01;101571.25;;;13.88;70.62
59104;BME280;51449;51.676;5.812;2022-08-21T04:26:23;101573.88;;;13.85;70.42
59104;BME280;51449;51.676;5.812;2022-08-21T04:28:47;101575.03;;;13.84;70.41
59104;BME280;51449;51.676;5.812;2022-08-21T04:31:08;101578.13;;;13.82;70.52
59104;BME280;51449;51.676;5.812;2022-08-21T04:33:31;101577.81;;;13.84;70.81
59104;BME280;51449;51.676;5.812;2022-08-21T04:35:53;101579.91;;;13.87;70.98
59104;BME280;51449;51.676;5.812;2022-08-21T04:38:16;101585.13;;;13.88;70.84
59104;BME280;51449;51.676;5.812;2022-08-21T04:40:38;101580.72;;;13.87;71.16
59104;BME280;51449;51.676;5.812;2022-08-21T04:43:04;101583.16;;;13.89;70.88
59104;BME280;51449;51.676;5.812;2022-08-21T04:45:36;101570.78;;;13.86;70.95
59104;BME280;51449;51.676;5.812;2022-08-21T04:48:03;101571.59;;;13.87;70.87
59104;BME280;51449;51.676;5.812;2022-08-21T04:50:38;101582.34;;;13.88;71.28
59104;BME280;51449;51.676;5.812;2022-08-21T04:53:21;101583.16;;;13.89;71.45
59104;BME280;51449;51.676;5.812;2022-08-21T04:55:58;101593.09;;;13.90;71.13
59104;BME280;51449;51.676;5.812;2022-08-21T04:58:25;101594.38;;;13.93;71.26
59104;BME280;51449;51.676;5.812;2022-08-21T05:00:48;101600.72;;;13.93;71.18
59104;BME280;51449;51.676;5.812;2022-08-21T05:03:13;101597.97;;;13.93;71.32
59104;BME280;51449;51.676;5.812;2022-08-21T05:05:38;101604.31;;;13.94;71.43
59104;BME280;51449;51.676;5.812;2022-08-21T05:08:02;101601.66;;;13.97;71.27
59104;BME280;51449;51.676;5.812;2022-08-21T05:10:26;101602.97;;;14.00;71.57
59104;BME280;51449;51.676;5.812;2022-08-21T05:12:49;101599.50;;;14.03;71.61
59104;BME280;51449;51.676;5.812;2022-08-21T05:15:11;101602.28;;;14.03;71.43
59104;BME280;51449;51.676;5.812;2022-08-21T05:17:34;101606.34;;;14.05;71.61
59104;BME280;51449;51.676;5.812;2022-08-21T05:19:56;101600.09;;;14.08;71.41
59104;BME280;51449;51.676;5.812;2022-08-21T05:22:20;101601.06;;;14.12;71.42
59104;BME280;51449;51.676;5.812;2022-08-21T05:24:44;101609.16;;;14.18;71.54
59104;BME280;51449;51.676;5.812;2022-08-21T05:27:05;101603.88;;;14.25;71.68
59104;BME280;51449;51.676;5.812;2022-08-21T05:29:28;101604.47;;;14.30;71.92
59104;BME280;51449;51.676;5.812;2022-08-21T05:31:52;101610.75;;;14.40;71.82
59104;BME280;51449;51.676;5.812;2022-08-21T05:34:18;101612.63;;;14.48;72.24
59104;BME280;51449;51.676;5.812;2022-08-21T05:36:42;101612.13;;;14.54;72.29
59104;BME280;51449;51.676;5.812;2022-08-21T05:39:05;101613.97;;;14.63;72.32
59104;BME280;51449;51.676;5.812;2022-08-21T05:41:27;101616.53;;;14.68;72.52
59104;BME280;51449;51.676;5.812;2022-08-21T05:43:49;101612.88;;;14.76;72.76
59104;BME280;51449;51.676;5.812;2022-08-21T05:46:11;101619.16;;;14.85;73.08
59104;BME280;51449;51.676;5.812;2022-08-21T05:48:34;101623.31;;;14.91;73.31
59104;BME280;51449;51.676;5.812;2022-08-21T05:50:57;101624.81;;;15.01;72.90
59104;BME280;51449;51.676;5.812;2022-08-21T05:53:20;101621.13;;;15.09;72.90
59104;BME280;51449;51.676;5.812;2022-08-21T05:55:45;101628.56;;;15.17;72.89
59104;BME280;51449;51.676;5.812;2022-08-21T05:58:07;101623.25;;;15.25;73.21
59104;BME280;51449;51.676;5.812;2022-08-21T06:00:30;101624.28;;;15.32;73.07
59104;BME280;51449;51.676;5.812;2022-08-21T06:02:53;101632.50;;;15.41;73.21
59104;BME280;51449;51.676;5.812;2022-08-21T06:05:16;101617.56;;;15.46;73.24
59104;BME280;51449;51.676;5.812;2022-08-21T06:07:57;101619.78;;;15.52;73.67
59104;BME280;51449;51.676;5.812;2022-08-21T06:10:19;101617.56;;;15.58;73.04
59104;BME280;51449;51.676;5.812;2022-08-21T06:12:41;101616.63;;;15.66;73.41
59104;BME280;51449;51.676;5.812;2022-08-21T06:15:04;101616.53;;;15.75;73.44
59104;BME280;51449;51.676;5.812;2022-08-21T06:17:26;101618.72;;;15.81;73.56
59104;BME280;51449;51.676;5.812;2022-08-21T06:19:52;101616.63;;;15.91;73.41
59104;BME280;51449;51.676;5.812;2022-08-21T06:22:15;101621.69;;;16.01;73.37
59104;BME280;51449;51.676;5.812;2022-08-21T06:24:37;101617.94;;;16.09;73.12
59104;BME280;51449;51.676;5.812;2022-08-21T06:27:04;101619.09;;;16.20;73.09
59104;BME280;51449;51.676;5.812;2022-08-21T06:29:29;101617.78;;;16.30;72.77
59104;BME280;51449;51.676;5.812;2022-08-21T06:32:05;101622.84;;;16.40;72.67
59104;BME280;51449;51.676;5.812;2022-08-21T06:34:31;101619.09;;;16.48;72.63
59104;BME280;51449;51.676;5.812;2022-08-21T06:36:53;101624.59;;;16.61;72.55
59104;BME280;51449;51.676;5.812;2022-08-21T06:39:17;101612.84;;;16.67;72.63
59104;BME280;51449;51.676;5.812;2022-08-21T06:41:51;101620.34;;;16.79;72.59
59104;BME280;51449;51.676;5.812;2022-08-21T06:44:16;101617.13;;;16.93;72.71
59104;BME280;51449;51.676;5.812;2022-08-21T06:46:39;101617.97;;;17.09;72.69
59104;BME280;51449;51.676;5.812;2022-08-21T06:49:02;101611.94;;;17.23;72.33
59104;BME280;51449;51.676;5.812;2022-08-21T06:51:27;101613.09;;;17.38;72.13
59104;BME280;51449;51.676;5.812;2022-08-21T06:53:49;101619.38;;;17.51;71.49
59104;BME280;51449;51.676;5.812;2022-08-21T06:56:11;101611.72;;;17.64;71.30
59104;BME280;51449;51.676;5.812;2022-08-21T06:58:33;101614.81;;;17.78;70.88
59104;BME280;51449;51.676;5.812;2022-08-21T07:00:55;101620.38;;;17.94;70.74
59104;BME280;51449;51.676;5.812;2022-08-21T07:03:24;101617.53;;;18.10;70.34
59104;BME280;51449;51.676;5.812;2022-08-21T07:05:49;101622.66;;;18.27;69.90
59104;BME280;51449;51.676;5.812;2022-08-21T07:08:11;101615.75;;;18.40;69.30
59104;BME280;51449;51.676;5.812;2022-08-21T07:10:33;101621.56;;;18.51;69.02
59104;BME280;51449;51.676;5.812;2022-08-21T07:13:00;101618.59;;;18.64;68.42
59104;BME280;51449;51.676;5.812;2022-08-21T07:15:23;101611.63;;;18.73;68.09
59104;BME280;51449;51.676;5.812;2022-08-21T07:17:45;101611.78;;;18.80;67.94
59104;BME280;51449;51.676;5.812;2022-08-21T07:20:07;101614.38;;;18.93;67.90
59104;BME280;51449;51.676;5.812;2022-08-21T07:22:30;101618.59;;;19.06;67.54
59104;BME280;51449;51.676;5.812;2022-08-21T07:24:54;101617.66;;;19.21;67.36
59104;BME280;51449;51.676;5.812;2022-08-21T07:27:16;101615.91;;;19.36;67.10
59104;BME280;51449;51.676;5.812;2022-08-21T07:29:38;101617.69;;;19.48;66.80
59104;BME280;51449;51.676;5.812;2022-08-21T07:32:00;101616.78;;;19.67;66.65
59104;BME280;51449;51.676;5.812;2022-08-21T07:34:22;101607.81;;;19.81;66.03
59104;BME280;51449;51.676;5.812;2022-08-21T07:36:44;101600.78;;;19.94;65.77
59104;BME280;51449;51.676;5.812;2022-08-21T07:39:06;101603.34;;;20.06;65.58
59104;BME280;51449;51.676;5.812;2022-08-21T07:41:29;101605.16;;;20.22;64.98
59104;BME280;51449;51.676;5.812;2022-08-21T07:43:53;101605.28;;;20.33;64.84
59104;BME280;51449;51.676;5.812;2022-08-21T07:46:15;101605.00;;;20.41;64.40
59104;BME280;51449;51.676;5.812;2022-08-21T07:48:37;101604.72;;;20.53;64.28
59104;BME280;51449;51.676;5.812;2022-08-21T07:51:02;101607.28;;;20.66;64.20
59104;BME280;51449;51.676;5.812;2022-08-21T07:53:28;101599.03;;;20.80;64.11
59104;BME280;51449;51.676;5.812;2022-08-21T07:55:50;101600.22;;;20.79;63.06
59104;BME280;51449;51.676;5.812;2022-08-21T07:58:12;101603.72;;;20.72;63.20
59104;BME280;51449;51.676;5.812;2022-08-21T08:00:34;101602.16;;;20.75;63.24
59104;BME280;51449;51.676;5.812;2022-08-21T08:02:56;101606.59;;;20.76;63.37
59104;BME280;51449;51.676;5.812;2022-08-21T08:05:22;101610.59;;;20.79;63.26
59104;BME280;51449;51.676;5.812;2022-08-21T08:07:47;101605.88;;;20.86;63.79
59104;BME280;51449;51.676;5.812;2022-08-21T08:10:10;101597.97;;;20.95;63.60
59104;BME280;51449;51.676;5.812;2022-08-21T08:12:37;101599.63;;;21.04;63.12
59104;BME280;51449;51.676;5.812;2022-08-21T08:15:03;101602.13;;;21.12;63.38
59104;BME280;51449;51.676;5.812;2022-08-21T08:17:27;101599.78;;;21.22;63.28
59104;BME280;51449;51.676;5.812;2022-08-21T08:19:50;101607.44;;;21.28;62.42
59104;BME280;51449;51.676;5.812;2022-08-21T08:22:14;101595.91;;;21.37;62.64
59104;BME280;51449;51.676;5.812;2022-08-21T08:24:38;101600.44;;;21.52;62.19
59104;BME280;51449;51.676;5.812;2022-08-21T08:27:00;101600.94;;;21.69;62.19
59104;BME280;51449;51.676;5.812;2022-08-21T08:29:22;101603.84;;;21.83;61.55
59104;BME280;51449;51.676;5.812;2022-08-21T08:31:44;101613.94;;;21.98;61.54
59104;BME280;51449;51.676;5.812;2022-08-21T08:34:06;101602.78;;;22.13;60.93
59104;BME280;51449;51.676;5.812;2022-08-21T08:36:33;101595.22;;;22.20;60.04
59104;BME280;51449;51.676;5.812;2022-08-21T08:39:00;101597.63;;;22.26;60.04
59104;BME280;51449;51.676;5.812;2022-08-21T08:41:26;101590.84;;;22.37;59.87
59104;BME280;51449;51.676;5.812;2022-08-21T08:43:59;101582.88;;;22.47;59.64
59104;BME280;51449;51.676;5.812;2022-08-21T08:46:36;101588.09;;;22.62;59.45
59104;BME280;51449;51.676;5.812;2022-08-21T08:49:09;101579.69;;;22.77;59.18
59104;BME280;51449;51.676;5.812;2022-08-21T08:51:53;101574.88;;;22.92;58.47
59104;BME280;51449;51.676;5.812;2022-08-21T08:54:34;101572.53;;;23.08;58.52
59104;BME280;51449;51.676;5.812;2022-08-21T08:57:09;101570.50;;;23.26;58.08
59104;BME280;51449;51.676;5.812;2022-08-21T08:59:46;101562.84;;;23.41;57.13
59104;BME280;51449;51.676;5.812;2022-08-21T09:02:16;101560.00;;;23.56;57.10
59104;BME280;51449;51.676;5.812;2022-08-21T09:04:39;101567.59;;;23.69;56.48
59104;BME280;51449;51.676;5.812;2022-08-21T09:07:16;101560.75;;;23.81;55.91
59104;BME280;51449;51.676;5.812;2022-08-21T09:12:46;101564.31;;;23.96;54.16
59104;BME280;51449;51.676;5.812;2022-08-21T09:15:36;101564.38;;;23.71;54.27
59104;BME280;51449;51.676;5.812;2022-08-21T09:21:30;101571.72;;;23.07;54.87
59104;BME280;51449;51.676;5.812;2022-08-21T09:29:34;101564.41;;;22.53;56.34
59104;BME280;51449;51.676;5.812;2022-08-21T09:31:58;101566.00;;;22.47;56.31
59104;BME280;51449;51.676;5.812;2022-08-21T09:34:31;101564.81;;;22.44;56.38
59104;BME280;51449;51.676;5.812;2022-08-21T09:36:54;101569.22;;;22.52;56.44
59104;BME280;51449;51.676;5.812;2022-08-21T09:39:27;101564.84;;;22.65;56.01
59104;BME280;51449;51.676;5.812;2022-08-21T09:42:04;101563.25;;;22.75;54.36
59104;BME280;51449;51.676;5.812;2022-08-21T09:44:31;101568.84;;;22.64;54.20
59104;BME280;51449;51.676;5.812;2022-08-21T09:46:57;101570.84;;;22.60;54.99
59104;BME280;51449;51.676;5.812;2022-08-21T09:49:46;101568.03;;;22.68;53.78
59104;BME280;51449;51.676;5.812;2022-08-21T09:52:20;101569.66;;;22.86;54.79
59104;BME280;51449;51.676;5.812;2022-08-21T09:54:45;101559.66;;;23.11;53.59
59104;BME280;51449;51.676;5.812;2022-08-21T09:59:47;101565.25;;;23.54;53.41
59104;BME280;51449;51.676;5.812;2022-08-21T10:02:29;101557.59;;;23.61;52.32
59104;BME280;51449;51.676;5.812;2022-08-21T10:05:07;101558.75;;;23.78;51.96
59104;BME280;51449;51.676;5.812;2022-08-21T10:07:38;101563.91;;;23.94;51.32
59104;BME280;51449;51.676;5.812;2022-08-21T10:10:04;101553.41;;;24.09;51.04
59104;BME280;51449;51.676;5.812;2022-08-21T10:12:48;101544.09;;;24.23;49.42
59104;BME280;51449;51.676;5.812;2022-08-21T10:18:43;101550.91;;;24.25;49.68
59104;BME280;51449;51.676;5.812;2022-08-21T10:24:09;101551.91;;;24.60;48.40
59104;BME280;51449;51.676;5.812;2022-08-21T10:35:13;101554.75;;;25.09;47.03
59104;BME280;51449;51.676;5.812;2022-08-21T10:38:24;101546.97;;;25.27;46.02
59104;BME280;51449;51.676;5.812;2022-08-21T10:41:30;101543.03;;;25.17;46.41
59104;BME280;51449;51.676;5.812;2022-08-21T10:44:32;101545.00;;;25.20;46.20
59104;BME280;51449;51.676;5.812;2022-08-21T10:47:05;101541.59;;;25.40;46.61
59104;BME280;51449;51.676;5.812;2022-08-21T10:50:04;101541.28;;;25.69;46.60
59104;BME280;51449;51.676;5.812;2022-08-21T10:55:14;101541.94;;;25.80;45.07
59104;BME280;51449;51.676;5.812;2022-08-21T10:57:57;101536.50;;;25.62;44.73
59104;BME280;51449;51.676;5.812;2022-08-21T11:00:22;101539.66;;;25.68;45.44
59104;BME280;51449;51.676;5.812;2022-08-21T11:03:08;101541.09;;;25.83;44.81
59104;BME280;51449;51.676;5.812;2022-08-21T11:05:54;101547.56;;;25.80;44.06
59104;BME280;51449;51.676;5.812;2022-08-21T11:08:29;101541.94;;;25.80;44.13
59104;BME280;51449;51.676;5.812;2022-08-21T11:11:01;101542.38;;;25.78;43.92
59104;BME280;51449;51.676;5.812;2022-08-21T11:16:21;101540.13;;;25.97;43.72
59104;BME280;51449;51.676;5.812;2022-08-21T11:21:36;101542.38;;;26.13;43.48
59104;BME280;51449;51.676;5.812;2022-08-21T11:27:06;101537.47;;;25.86;42.80
59104;BME280;51449;51.676;5.812;2022-08-21T11:29:57;101532.81;;;25.69;42.80
59104;BME280;51449;51.676;5.812;2022-08-21T11:46:29;101532.59;;;25.90;41.59
59104;BME280;51449;51.676;5.812;2022-08-21T11:51:48;101518.19;;;26.12;42.70
59104;BME280;51449;51.676;5.812;2022-08-21T11:54:28;101515.88;;;26.30;42.42
59104;BME280;51449;51.676;5.812;2022-08-21T11:57:02;101515.09;;;26.30;42.51
59104;BME280;51449;51.676;5.812;2022-08-21T11:59:38;101521.34;;;26.14;39.84
59104;BME280;51449;51.676;5.812;2022-08-21T12:02:12;101514.78;;;25.93;41.45
59104;BME280;51449;51.676;5.812;2022-08-21T12:04:44;101515.44;;;26.04;41.69
59104;BME280;51449;51.676;5.812;2022-08-21T12:07:12;101526.06;;;26.24;42.06
59104;BME280;51449;51.676;5.812;2022-08-21T12:09:55;101532.91;;;26.54;41.64
59104;BME280;51449;51.676;5.812;2022-08-21T12:12:29;101530.78;;;26.61;41.00
59104;BME280;51449;51.676;5.812;2022-08-21T12:17:38;101541.41;;;26.77;41.36
59104;BME280;51449;51.676;5.812;2022-08-21T12:23:03;101539.88;;;26.73;40.93
59104;BME280;51449;51.676;5.812;2022-08-21T12:25:25;101534.06;;;26.83;40.48
59104;BME280;51449;51.676;5.812;2022-08-21T12:28:07;101537.38;;;26.78;41.06
59104;BME280;51449;51.676;5.812;2022-08-21T12:30:36;101536.91;;;26.56;41.29
59104;BME280;51449;51.676;5.812;2022-08-21T12:35:46;101533.50;;;26.68;41.00
59104;BME280;51449;51.676;5.812;2022-08-21T12:38:17;101534.84;;;26.84;40.96
59104;BME280;51449;51.676;5.812;2022-08-21T12:41:06;101527.84;;;26.92;40.57
59104;BME280;51449;51.676;5.812;2022-08-21T12:43:43;101523.97;;;27.06;40.56
59104;BME280;51449;51.676;5.812;2022-08-21T12:46:34;101527.69;;;27.26;40.00
59104;BME280;51449;51.676;5.812;2022-08-21T12:49:12;101530.66;;;27.39;40.11
59104;BME280;51449;51.676;5.812;2022-08-21T12:51:51;101530.06;;;27.48;39.23
59104;BME280;51449;51.676;5.812;2022-08-21T12:54:36;101526.75;;;27.53;39.26
59104;BME280;51449;51.676;5.812;2022-08-21T12:57:03;101529.56;;;27.53;39.28
59104;BME280;51449;51.676;5.812;2022-08-21T12:59:27;101530.69;;;27.59;38.54
59104;BME280;51449;51.676;5.812;2022-08-21T13:01:52;101511.94;;;27.65;38.44
59104;BME280;51449;51.676;5.812;2022-08-21T13:04:19;101510.41;;;27.81;37.84
59104;BME280;51449;51.676;5.812;2022-08-21T13:06:50;101523.94;;;27.93;37.97
59104;BME280;51449;51.676;5.812;2022-08-21T13:09:16;101523.72;;;27.84;36.86
59104;BME280;51449;51.676;5.812;2022-08-21T13:11:45;101529.22;;;27.71;36.71
59104;BME280;51449;51.676;5.812;2022-08-21T13:14:19;101521.38;;;27.79;36.79
59104;BME280;51449;51.676;5.812;2022-08-21T13:17:13;101518.69;;;27.91;36.99
59104;BME280;51449;51.676;5.812;2022-08-21T13:20:23;101516.00;;;28.04;36.15
59104;BME280;51449;51.676;5.812;2022-08-21T13:22:49;101516.72;;;28.08;35.99
59104;BME280;51449;51.676;5.812;2022-08-21T13:25:13;101518.50;;;28.18;36.05
59104;BME280;51449;51.676;5.812;2022-08-21T13:27:37;101519.59;;;28.25;35.59
59104;BME280;51449;51.676;5.812;2022-08-21T13:30:19;101511.00;;;28.28;35.50
59104;BME280;51449;51.676;5.812;2022-08-21T13:32:45;101516.97;;;28.34;35.27
59104;BME280;51449;51.676;5.812;2022-08-21T13:35:22;101527.63;;;28.46;35.25
59104;BME280;51449;51.676;5.812;2022-08-21T13:37:50;101530.63;;;28.55;34.82
59104;BME280;51449;51.676;5.812;2022-08-21T13:40:20;101521.78;;;28.53;34.84
59104;BME280;51449;51.676;5.812;2022-08-21T13:42:47;101521.97;;;28.46;34.56
59104;BME280;51449;51.676;5.812;2022-08-21T13:45:14;101521.22;;;28.42;33.30
59104;BME280;51449;51.676;5.812;2022-08-21T13:47:38;101519.78;;;28.34;34.77
59104;BME280;51449;51.676;5.812;2022-08-21T13:50:00;101511.63;;;28.36;35.11
59104;BME280;51449;51.676;5.812;2022-08-21T13:52:26;101513.97;;;28.41;34.97
59104;BME280;51449;51.676;5.812;2022-08-21T13:55:06;101513.84;;;28.45;34.93
59104;BME280;51449;51.676;5.812;2022-08-21T13:57:34;101509.88;;;28.42;35.16